West Richmondville, New York
Current Conditions -  °F | °C
As of 10:15 PM on Saturday 25 Oct 2014 (Local Time) from KNY0 Reporting Station
Clear Clear  
Wind Chill: 51°   Ceiling: Unl
Heat Index: 51°   Visibility: 10mi
Dew Point: 45°   Wind: 14mph
Humidity: 81%   Direction: 270°W
Pressure: 29.56"   Gusts: 18mph
Location:  42.6466°N, 74.5743°W
Report Text: KNY0 260215Z AUTO 27012G16KT 10SM CLR 10/07 A2956 RMK AO2 T01040073
Loading
Personal Weather Stations






























Interactive Weather Map
Tropical Storm Tracking
New forecast layout! Learn more

10-Day Weather Forecast

Advertisements
Track Severe Weather on mobile